Time;durP1;ratioP1;P1;durP2;ratioP2;P2;SDS_P1;SDS_P2;PMS_P1;PMS_P2;Temp;Humidity;BMP_temperature;BMP_pressure;BME280_temperature;BME280_humidity;BME280_pressure;Samples;Min_cycle;Max_cycle;Signal;HPM_P1;HPM_P2
2023/11/28 00:00:23;;;;;;;0.40;0.40;;;0.80;99.90;;;;;;5036967;28;20222;-78
2023/11/28 00:02:50;;;;;;;0.40;0.40;;;0.80;99.90;;;;;;5041689;28;20195;-80
2023/11/28 00:05:16;;;;;;;1.80;1.08;;;0.80;99.90;;;;;;5049108;28;20191;-82
2023/11/28 00:07:44;;;;;;;0.40;0.40;;;0.80;99.90;;;;;;5054611;22;20299;-81
2023/11/28 00:10:11;;;;;;;3.58;3.15;;;0.80;99.90;;;;;;5049932;28;20199;-81
2023/11/28 00:12:39;;;;;;;3.15;1.25;;;0.80;99.90;;;;;;5062066;28;20209;-81
2023/11/28 00:15:07;;;;;;;1.05;0.68;;;0.80;99.90;;;;;;5063599;28;20195;-81
2023/11/28 00:17:34;;;;;;;0.40;0.40;;;0.80;99.90;;;;;;5064379;28;20219;-81
2023/11/28 00:20:00;;;;;;;1.25;1.25;;;0.80;99.90;;;;;;5061764;28;20215;-80
2023/11/28 00:22:27;;;;;;;0.95;0.95;;;0.80;99.90;;;;;;5062169;28;20195;-81
2023/11/28 00:24:54;;;;;;;2.45;1.35;;;0.80;99.90;;;;;;5055849;28;20286;-82
2023/11/28 00:27:21;;;;;;;0.60;0.60;;;0.90;99.90;;;;;;5062625;28;20237;-81
2023/11/28 00:29:49;;;;;;;0.40;0.40;;;0.90;99.90;;;;;;5055129;28;20195;-81
2023/11/28 00:32:16;;;;;;;0.40;0.40;;;0.90;99.90;;;;;;5063067;28;20655;-81
2023/11/28 00:34:43;;;;;;;0.95;0.95;;;0.90;99.90;;;;;;5061603;28;20635;-81
2023/11/28 00:37:10;;;;;;;0.50;0.50;;;1.00;99.90;;;;;;5062222;28;20225;-82
2023/11/28 00:39:37;;;;;;;0.40;0.40;;;0.90;99.90;;;;;;5062077;28;20747;-81
2023/11/28 00:42:05;;;;;;;1.27;1.20;;;0.90;99.90;;;;;;5061617;28;20297;-82
2023/11/28 00:44:32;;;;;;;1.35;1.05;;;1.00;99.90;;;;;;5062387;28;20687;-82
2023/11/28 00:47:00;;;;;;;4.30;1.40;;;1.00;99.90;;;;;;5060363;28;20725;-81
2023/11/28 00:49:27;;;;;;;0.40;0.40;;;1.10;99.90;;;;;;5061032;28;20282;-81
2023/11/28 00:51:54;;;;;;;1.02;0.82;;;1.10;99.90;;;;;;5062491;28;20263;-81
2023/11/28 00:54:21;;;;;;;8.43;1.40;;;1.10;99.90;;;;;;5061841;28;20210;-81
2023/11/28 00:56:48;;;;;;;0.40;0.40;;;1.20;99.90;;;;;;5060229;28;20214;-81
2023/11/28 00:59:14;;;;;;;0.50;0.40;;;1.20;99.90;;;;;;5061231;28;20704;-81
2023/11/28 01:01:41;;;;;;;0.63;0.63;;;1.20;99.90;;;;;;5063600;28;20705;-81
2023/11/28 01:04:09;;;;;;;0.93;0.90;;;1.20;99.90;;;;;;5063096;28;20565;-81
2023/11/28 01:06:36;;;;;;;1.15;1.05;;;1.20;99.90;;;;;;5062460;28;20231;-81
2023/11/28 01:09:03;;;;;;;0.40;0.40;;;1.20;99.90;;;;;;5063864;28;20195;-81
2023/11/28 01:11:30;;;;;;;0.93;0.70;;;1.20;99.90;;;;;;5063557;28;20191;-81
2023/11/28 01:13:57;;;;;;;0.40;0.40;;;1.10;99.90;;;;;;5063190;28;20202;-81
2023/11/28 01:16:23;;;;;;;0.50;0.50;;;1.10;99.90;;;;;;5062854;28;20283;-81
2023/11/28 01:18:50;;;;;;;0.88;0.88;;;1.10;99.90;;;;;;5054055;28;20210;-80
2023/11/28 01:21:19;;;;;;;0.88;0.60;;;1.20;99.90;;;;;;5061081;28;20214;-81
2023/11/28 01:23:45;;;;;;;0.40;0.40;;;1.20;99.90;;;;;;5061754;28;20199;-81
2023/11/28 01:26:13;;;;;;;1.05;1.05;;;1.10;99.90;;;;;;5062417;28;20678;-80
2023/11/28 01:28:41;;;;;;;0.40;0.40;;;1.20;99.90;;;;;;5062964;28;20199;-81
2023/11/28 01:31:08;;;;;;;1.50;1.40;;;1.20;99.90;;;;;;5061906;28;20643;-81
2023/11/28 01:33:34;;;;;;;1.50;1.40;;;1.20;99.90;;;;;;5061252;28;20198;-82
2023/11/28 01:36:04;;;;;;;0.40;0.40;;;1.10;99.90;;;;;;5061684;28;20218;-81
2023/11/28 01:38:32;;;;;;;1.77;1.50;;;1.10;99.90;;;;;;5060813;28;20191;-81
2023/11/28 01:40:59;;;;;;;1.58;1.48;;;1.10;99.90;;;;;;5057777;28;20222;-82
2023/11/28 01:43:26;;;;;;;1.40;1.30;;;1.20;99.90;;;;;;5058180;28;20195;-82
2023/11/28 01:45:53;;;;;;;0.50;0.50;;;1.20;99.90;;;;;;5049308;28;20199;-81
2023/11/28 01:48:20;;;;;;;0.95;0.95;;;1.20;99.90;;;;;;5057761;28;20218;-82
2023/11/28 01:50:48;;;;;;;0.80;0.73;;;1.10;99.90;;;;;;5059553;28;20196;-82
2023/11/28 01:53:17;;;;;;;1.40;0.88;;;1.20;99.90;;;;;;5057176;28;20206;-82
2023/11/28 01:55:45;;;;;;;0.55;0.55;;;1.20;99.90;;;;;;5057786;28;20199;-82
2023/11/28 01:58:13;;;;;;;0.68;0.68;;;1.20;99.90;;;;;;5058614;28;20215;-82
2023/11/28 02:00:39;;;;;;;1.65;1.55;;;1.20;99.90;;;;;;5064659;28;20215;-83
2023/11/28 02:03:10;;;;;;;2.35;1.77;;;1.20;99.90;;;;;;5064212;28;20195;-82
2023/11/28 02:05:38;;;;;;;1.67;1.58;;;1.20;99.90;;;;;;5058439;28;20299;-82
2023/11/28 02:08:07;;;;;;;0.40;0.40;;;1.20;99.90;;;;;;5056757;28;20218;-82
2023/11/28 02:10:35;;;;;;;0.63;0.63;;;1.20;99.90;;;;;;5056958;28;20191;-80
2023/11/28 02:13:03;;;;;;;0.40;0.40;;;1.20;99.90;;;;;;5058823;28;20524;-82
2023/11/28 02:15:40;;;;;;;0.55;0.55;;;1.20;99.90;;;;;;5058397;28;20199;-84
2023/11/28 02:18:07;;;;;;;0.50;0.50;;;1.20;99.90;;;;;;5050920;28;20571;-82
2023/11/28 02:20:34;;;;;;;1.80;1.70;;;1.20;99.90;;;;;;5058121;28;20219;-82
2023/11/28 02:23:00;;;;;;;0.90;0.90;;;1.20;99.90;;;;;;5057317;28;20713;-82
2023/11/28 02:25:31;;;;;;;0.40;0.40;;;1.20;99.90;;;;;;5058506;28;20191;-80
2023/11/28 02:27:59;;;;;;;0.93;0.93;;;1.20;99.90;;;;;;5049111;28;20709;-82
2023/11/28 02:30:26;;;;;;;0.40;0.40;;;1.20;99.90;;;;;;5058926;28;20196;-82
2023/11/28 02:32:53;;;;;;;0.55;0.55;;;1.20;99.90;;;;;;5056340;28;20195;-82
2023/11/28 02:35:19;;;;;;;1.27;1.20;;;1.20;99.90;;;;;;5056504;28;20198;-82
2023/11/28 02:37:46;;;;;;;2.08;1.77;;;1.20;99.90;;;;;;5055980;28;20222;-82
2023/11/28 02:40:13;;;;;;;0.70;0.70;;;1.20;99.90;;;;;;5055663;28;20215;-82
2023/11/28 02:42:40;;;;;;;1.23;1.13;;;1.20;99.90;;;;;;5056072;28;20199;-82
2023/11/28 02:45:09;;;;;;;2.45;2.20;;;1.10;99.90;;;;;;5054622;28;20646;-82
2023/11/28 02:47:36;;;;;;;1.25;1.15;;;1.10;99.90;;;;;;5055262;28;20226;-82
2023/11/28 02:50:03;;;;;;;1.77;1.50;;;1.00;99.90;;;;;;5054690;28;20203;-81
2023/11/28 02:52:30;;;;;;;2.17;2.03;;;1.10;99.90;;;;;;5054684;28;20199;-82
2023/11/28 02:54:57;;;;;;;1.63;1.25;;;1.10;99.90;;;;;;5056555;28;20197;-82
2023/11/28 02:57:23;;;;;;;2.05;1.25;;;1.10;99.90;;;;;;5055458;28;20710;-82
2023/11/28 02:59:50;;;;;;;1.80;1.67;;;1.10;99.90;;;;;;5054437;28;20655;-81
2023/11/28 03:02:19;;;;;;;1.40;1.40;;;1.10;99.90;;;;;;5055372;28;20309;-83
2023/11/28 03:04:46;;;;;;;0.60;0.60;;;1.10;99.90;;;;;;5054767;28;20203;-82
2023/11/28 03:07:13;;;;;;;1.75;1.70;;;1.10;99.90;;;;;;5054609;28;20225;-82
2023/11/28 03:09:40;;;;;;;0.82;0.82;;;1.20;99.90;;;;;;5055734;28;20203;-81
2023/11/28 03:12:07;;;;;;;3.38;2.97;;;1.10;99.90;;;;;;5054514;28;20598;-81
2023/11/28 03:14:34;;;;;;;3.55;2.45;;;1.10;99.90;;;;;;5054655;28;20570;-82
2023/11/28 03:17:00;;;;;;;0.77;0.77;;;1.10;99.90;;;;;;5046804;28;20219;-82
2023/11/28 03:19:28;;;;;;;0.40;0.40;;;1.10;99.90;;;;;;5054282;28;20282;-82
2023/11/28 03:21:55;;;;;;;5.30;4.25;;;1.10;99.90;;;;;;5054555;28;20219;-81
2023/11/28 03:24:22;;;;;;;3.53;2.55;;;1.20;99.90;;;;;;5054340;28;20210;-82
2023/11/28 03:26:49;;;;;;;3.25;2.30;;;1.20;99.90;;;;;;5054002;28;20219;-82
2023/11/28 03:29:15;;;;;;;1.80;1.70;;;1.30;99.90;;;;;;5054869;28;20206;-82
2023/11/28 03:31:42;;;;;;;0.80;0.80;;;1.20;99.90;;;;;;5054604;28;20289;-82
2023/11/28 03:34:10;;;;;;;2.95;2.03;;;1.20;99.90;;;;;;5054478;28;20206;-82
2023/11/28 03:36:38;;;;;;;0.85;0.85;;;1.20;99.90;;;;;;5054507;28;20223;-82
2023/11/28 03:39:05;;;;;;;2.15;2.05;;;1.20;99.90;;;;;;5055621;28;20290;-82
2023/11/28 03:41:32;;;;;;;0.85;0.85;;;1.20;99.90;;;;;;5054247;28;20214;-82
2023/11/28 03:43:59;;;;;;;1.90;1.73;;;1.10;99.90;;;;;;5054432;28;20199;-82
2023/11/28 03:46:26;;;;;;;5.45;4.68;;;1.10;99.90;;;;;;5058527;28;20226;-82
2023/11/28 03:48:52;;;;;;;0.40;0.40;;;1.10;99.90;;;;;;5057676;28;20202;-82
2023/11/28 03:51:19;;;;;;;3.25;3.15;;;1.10;99.90;;;;;;5057580;28;20296;-82
2023/11/28 03:53:47;;;;;;;1.02;0.70;;;1.20;99.90;;;;;;5057580;28;20202;-82
2023/11/28 03:56:15;;;;;;;2.63;2.45;;;1.20;99.90;;;;;;5058004;28;20195;-82
2023/11/28 03:58:41;;;;;;;0.40;0.40;;;1.30;99.90;;;;;;5057761;28;20210;-81
2023/11/28 04:01:08;;;;;;;1.05;0.95;;;1.30;99.90;;;;;;5058237;28;20222;-82
2023/11/28 04:03:35;;;;;;;1.73;1.63;;;1.30;99.90;;;;;;5058645;28;20202;-82
2023/11/28 04:06:02;;;;;;;4.50;4.10;;;1.30;99.90;;;;;;5057934;28;20205;-82
2023/11/28 04:08:29;;;;;;;2.45;2.35;;;1.30;99.90;;;;;;5057798;28;20636;-82
2023/11/28 04:10:57;;;;;;;0.40;0.40;;;1.20;99.90;;;;;;5058437;28;20207;-83
2023/11/28 04:13:24;;;;;;;3.78;3.45;;;1.20;99.90;;;;;;5057845;28;20199;-83
2023/11/28 04:15:50;;;;;;;0.60;0.60;;;1.20;99.90;;;;;;5057393;28;20202;-82
2023/11/28 04:18:17;;;;;;;0.50;0.50;;;1.20;99.90;;;;;;5056662;28;20218;-82
2023/11/28 04:20:44;;;;;;;0.45;0.40;;;1.20;99.90;;;;;;5056043;28;20226;-82
2023/11/28 04:23:11;;;;;;;0.73;0.73;;;1.20;99.90;;;;;;5057260;28;20245;-82
2023/11/28 04:25:38;;;;;;;0.90;0.90;;;1.30;99.90;;;;;;5057136;28;20203;-81
2023/11/28 04:28:06;;;;;;;1.50;1.45;;;1.30;99.90;;;;;;5056873;28;20219;-83
2023/11/28 04:30:33;;;;;;;3.85;1.20;;;1.20;99.90;;;;;;5056864;28;20666;-83
2023/11/28 04:33:00;;;;;;;3.20;2.97;;;1.20;99.90;;;;;;5055958;28;20267;-80
2023/11/28 04:35:27;;;;;;;4.43;3.75;;;1.20;99.90;;;;;;5056902;28;20205;-80
2023/11/28 04:37:53;;;;;;;0.70;0.70;;;1.20;99.90;;;;;;5056347;28;20219;-82
2023/11/28 04:40:20;;;;;;;0.80;0.80;;;1.10;99.90;;;;;;5056299;28;20294;-81
2023/11/28 04:42:47;;;;;;;3.35;2.40;;;1.20;99.90;;;;;;5056456;28;20215;-81
2023/11/28 04:45:15;;;;;;;2.15;1.95;;;1.20;99.90;;;;;;5055820;28;20196;-83
2023/11/28 04:47:42;;;;;;;0.40;0.40;;;1.10;99.90;;;;;;5055791;28;20223;-83
2023/11/28 04:50:10;;;;;;;3.20;2.90;;;1.10;99.90;;;;;;5056715;28;20207;-81
2023/11/28 04:52:36;;;;;;;2.17;2.10;;;1.20;99.90;;;;;;5056031;28;20661;-82
2023/11/28 04:55:04;;;;;;;1.45;1.35;;;1.10;99.90;;;;;;5055457;28;20249;-80
2023/11/28 04:57:30;;;;;;;0.70;0.70;;;1.00;99.90;;;;;;5053283;28;20219;-82
2023/11/28 04:59:57;;;;;;;0.80;0.80;;;1.00;99.90;;;;;;5054790;28;20206;-82
2023/11/28 05:02:25;;;;;;;0.40;0.40;;;1.00;99.90;;;;;;5054578;28;20211;-81
2023/11/28 05:04:52;;;;;;;1.70;1.60;;;1.10;99.90;;;;;;5049817;28;20223;-82
2023/11/28 05:07:19;;;;;;;1.35;0.95;;;1.10;99.90;;;;;;5045723;28;20233;-82
2023/11/28 05:09:46;;;;;;;0.50;0.40;;;1.10;99.90;;;;;;5058383;28;20225;-80
2023/11/28 05:12:12;;;;;;;3.70;2.25;;;1.10;99.90;;;;;;5058146;28;20191;-80
2023/11/28 05:14:39;;;;;;;0.93;0.93;;;1.10;99.90;;;;;;5056880;28;20207;-81
2023/11/28 05:17:06;;;;;;;1.20;1.20;;;1.10;99.90;;;;;;5057510;28;20219;-79
2023/11/28 05:19:34;;;;;;;2.85;1.52;;;1.20;99.90;;;;;;5057458;28;20743;-80
2023/11/28 05:22:01;;;;;;;1.10;1.05;;;1.10;99.90;;;;;;5058072;28;20240;-80
2023/11/28 05:24:28;;;;;;;0.95;0.95;;;1.10;99.90;;;;;;5057274;28;20196;-80
2023/11/28 05:26:56;;;;;;;0.40;0.40;;;1.10;99.90;;;;;;5056794;28;20231;-83
2023/11/28 05:29:23;;;;;;;0.95;0.95;;;1.10;99.90;;;;;;5057501;28;20598;-81
2023/11/28 05:31:50;;;;;;;0.40;0.40;;;1.10;99.90;;;;;;5056230;28;20201;-81
2023/11/28 05:34:17;;;;;;;0.50;0.40;;;1.10;99.90;;;;;;5056710;28;20575;-80
2023/11/28 05:36:45;;;;;;;2.35;2.15;;;1.10;99.90;;;;;;5055443;28;20306;-81
2023/11/28 05:39:12;;;;;;;0.90;0.90;;;1.10;99.90;;;;;;5055864;28;20194;-82
2023/11/28 05:41:39;;;;;;;0.50;0.50;;;1.00;99.90;;;;;;5056546;28;20286;-80
2023/11/28 05:44:06;;;;;;;1.45;1.35;;;1.10;99.90;;;;;;5056177;28;20199;-81
2023/11/28 05:46:32;;;;;;;3.22;1.38;;;1.10;99.90;;;;;;5055592;28;20311;-81
2023/11/28 05:49:00;;;;;;;1.77;1.67;;;1.00;99.90;;;;;;5057750;28;20290;-81
2023/11/28 05:51:27;;;;;;;1.13;1.13;;;1.10;99.90;;;;;;5056672;28;20190;-81
2023/11/28 05:53:55;;;;;;;1.38;1.38;;;1.10;99.90;;;;;;5057184;28;20309;-82
2023/11/28 05:56:21;;;;;;;1.90;1.40;;;1.10;99.90;;;;;;5057055;28;20199;-82
2023/11/28 05:58:48;;;;;;;0.50;0.40;;;1.00;99.90;;;;;;5058287;28;20206;-80
2023/11/28 06:01:15;;;;;;;1.17;1.08;;;1.00;99.90;;;;;;5059101;28;20219;-81
2023/11/28 06:03:42;;;;;;;0.40;0.40;;;1.00;99.90;;;;;;5057834;28;20207;-81
2023/11/28 06:06:09;;;;;;;1.50;1.40;;;0.90;99.90;;;;;;5058312;28;20207;-82
2023/11/28 06:08:36;;;;;;;2.40;1.02;;;0.90;99.90;;;;;;5103561;22;20231;-84
2023/11/28 06:11:05;;;;;;;1.15;1.13;;;0.80;99.90;;;;;;5057525;28;20207;-83
2023/11/28 06:13:31;;;;;;;1.17;1.00;;;0.90;99.90;;;;;;5058172;28;20202;-83
2023/11/28 06:15:59;;;;;;;1.60;1.50;;;0.80;99.90;;;;;;5058046;28;20198;-82
2023/11/28 06:18:26;;;;;;;1.45;1.45;;;0.80;99.90;;;;;;5054049;28;20242;-82
2023/11/28 06:20:53;;;;;;;0.50;0.40;;;0.70;99.90;;;;;;5054146;28;20226;-80
2023/11/28 06:23:19;;;;;;;0.40;0.40;;;0.70;99.90;;;;;;5057510;28;20218;-83
2023/11/28 06:25:46;;;;;;;0.50;0.40;;;0.70;99.90;;;;;;5057024;28;20205;-82
2023/11/28 06:28:14;;;;;;;0.52;0.52;;;0.70;99.90;;;;;;5057408;28;20223;-83
2023/11/28 06:30:41;;;;;;;1.35;1.35;;;0.70;99.90;;;;;;5056633;28;20199;-83
2023/11/28 06:33:08;;;;;;;0.50;0.50;;;0.70;99.90;;;;;;5057137;28;20709;-83
2023/11/28 06:35:35;;;;;;;0.50;0.40;;;0.70;99.90;;;;;;5058441;28;20598;-82
2023/11/28 06:38:02;;;;;;;0.50;0.50;;;0.70;99.90;;;;;;5057095;28;20229;-84
2023/11/28 06:40:29;;;;;;;0.50;0.40;;;0.70;99.90;;;;;;5057737;28;20527;-84
2023/11/28 06:42:57;;;;;;;1.08;0.98;;;0.60;99.90;;;;;;5061936;28;20220;-81
2023/11/28 06:45:25;;;;;;;1.08;1.08;;;0.60;99.90;;;;;;5058636;28;20195;-83
2023/11/28 06:47:52;;;;;;;0.50;0.50;;;0.60;99.90;;;;;;5059222;28;20215;-82
2023/11/28 06:50:19;;;;;;;0.50;0.50;;;0.50;99.90;;;;;;5058862;28;20712;-84
2023/11/28 06:52:46;;;;;;;2.08;1.60;;;0.50;99.90;;;;;;5057791;28;20199;-83
2023/11/28 06:55:12;;;;;;;0.50;0.50;;;0.50;99.90;;;;;;5055718;28;20627;-83
2023/11/28 06:57:39;;;;;;;0.50;0.40;;;0.50;99.90;;;;;;5051957;28;20242;-82
2023/11/28 07:00:09;;;;;;;1.30;1.17;;;0.50;99.90;;;;;;5058271;28;20203;-82
2023/11/28 07:02:37;;;;;;;0.60;0.50;;;0.50;99.90;;;;;;5058406;28;20222;-82
2023/11/28 07:05:04;;;;;;;1.42;0.80;;;0.40;99.90;;;;;;5058270;28;20273;-80
2023/11/28 07:07:31;;;;;;;1.10;1.05;;;0.30;99.90;;;;;;5058035;28;20286;-82
2023/11/28 07:09:58;;;;;;;0.50;0.40;;;0.30;99.90;;;;;;5058181;28;20248;-81
2023/11/28 07:12:25;;;;;;;6.90;2.47;;;0.30;99.90;;;;;;5058267;28;20265;-81
2023/11/28 07:14:52;;;;;;;0.50;0.40;;;0.20;99.90;;;;;;5058252;28;20570;-81
2023/11/28 07:17:19;;;;;;;0.50;0.40;;;0.10;99.90;;;;;;5057489;28;20230;-81
2023/11/28 07:19:47;;;;;;;0.50;0.40;;;0.10;99.90;;;;;;5056818;28;20310;-82
2023/11/28 07:22:14;;;;;;;0.50;0.40;;;0.00;99.90;;;;;;5057999;28;20218;-82
2023/11/28 07:24:40;;;;;;;0.47;0.40;;;0.00;99.90;;;;;;5057431;28;20199;-81
2023/11/28 07:27:07;;;;;;;0.40;0.40;;;-0.10;99.90;;;;;;5056273;28;20203;-81
2023/11/28 07:29:34;;;;;;;1.35;1.25;;;-0.10;99.90;;;;;;5058063;28;20222;-82
2023/11/28 07:32:01;;;;;;;0.50;0.40;;;-0.10;99.90;;;;;;5056607;28;20195;-80
2023/11/28 07:34:28;;;;;;;0.50;0.40;;;-0.20;99.90;;;;;;5057605;28;20203;-82
2023/11/28 07:36:56;;;;;;;0.70;0.70;;;-0.10;99.90;;;;;;5056754;28;20237;-79
2023/11/28 07:39:23;;;;;;;0.80;0.80;;;-0.10;99.90;;;;;;5057218;28;20199;-81
2023/11/28 07:41:50;;;;;;;0.60;0.60;;;-0.10;99.90;;;;;;5057141;28;20306;-81
2023/11/28 07:44:16;;;;;;;1.00;1.00;;;-0.20;99.90;;;;;;5057266;28;20191;-82
2023/11/28 07:46:43;;;;;;;0.80;0.80;;;-0.20;99.90;;;;;;5056895;28;20195;-81
2023/11/28 07:49:10;;;;;;;0.40;0.40;;;-0.10;99.90;;;;;;5056782;28;20218;-81
2023/11/28 07:51:37;;;;;;;1.20;0.80;;;-0.10;99.90;;;;;;5057768;28;20285;-81
2023/11/28 07:54:06;;;;;;;0.50;0.40;;;-0.10;99.90;;;;;;5056536;28;20199;-80
2023/11/28 07:56:33;;;;;;;0.40;0.40;;;0.00;99.90;;;;;;5056582;28;20282;-82
2023/11/28 07:59:00;;;;;;;0.50;0.50;;;0.10;99.90;;;;;;5057193;28;20692;-81
2023/11/28 08:01:27;;;;;;;0.40;0.40;;;0.30;99.90;;;;;;5057155;28;20191;-81
2023/11/28 08:03:53;;;;;;;0.40;0.40;;;0.40;99.90;;;;;;5056907;28;20223;-83
2023/11/28 08:06:20;;;;;;;0.60;0.50;;;0.60;99.90;;;;;;5056836;28;20203;-81
2023/11/28 08:08:47;;;;;;;0.50;0.50;;;0.90;99.90;;;;;;5056883;28;20230;-82
2023/11/28 08:11:15;;;;;;;0.40;0.40;;;1.20;99.90;;;;;;5057021;28;20267;-81
2023/11/28 08:13:42;;;;;;;2.38;2.17;;;1.70;99.90;;;;;;5057611;28;20197;-81
2023/11/28 08:16:09;;;;;;;0.50;0.50;;;2.30;99.90;;;;;;5056948;28;20214;-81
2023/11/28 08:18:36;;;;;;;0.50;0.40;;;2.90;99.90;;;;;;5057459;28;20243;-81
2023/11/28 08:21:06;;;;;;;1.00;0.93;;;3.40;99.90;;;;;;5057190;28;20590;-79
2023/11/28 08:23:33;;;;;;;0.50;0.40;;;3.80;99.90;;;;;;5058124;28;20226;-80
2023/11/28 08:26:00;;;;;;;0.50;0.40;;;3.90;99.90;;;;;;5057552;28;20198;-79
2023/11/28 08:28:28;;;;;;;0.50;0.40;;;3.80;99.90;;;;;;5056626;28;20266;-80
2023/11/28 08:30:55;;;;;;;0.50;0.40;;;3.50;99.90;;;;;;5058225;28;20199;-81
2023/11/28 08:33:22;;;;;;;0.60;0.60;;;3.50;99.90;;;;;;5061740;28;20198;-82
2023/11/28 08:35:49;;;;;;;0.50;0.40;;;3.90;99.90;;;;;;5060939;28;20207;-82
2023/11/28 08:38:15;;;;;;;1.08;0.95;;;4.70;99.90;;;;;;5061277;28;20223;-81
2023/11/28 08:40:42;;;;;;;0.50;0.40;;;5.40;99.90;;;;;;5061126;28;20203;-81
2023/11/28 08:43:10;;;;;;;0.50;0.40;;;6.10;99.90;;;;;;5061115;28;20225;-82
2023/11/28 08:45:38;;;;;;;0.50;0.50;;;6.80;99.90;;;;;;5061954;28;20206;-81
2023/11/28 08:48:05;;;;;;;0.50;0.40;;;7.10;99.90;;;;;;5062137;28;20237;-81
2023/11/28 08:50:32;;;;;;;0.80;0.80;;;7.30;99.90;;;;;;5053193;28;20203;-80
2023/11/28 08:52:59;;;;;;;0.50;0.40;;;7.60;99.90;;;;;;5061773;28;20206;-80
2023/11/28 08:55:26;;;;;;;0.50;0.40;;;7.70;99.90;;;;;;5061326;28;20204;-80
2023/11/28 08:57:52;;;;;;;0.50;0.50;;;7.80;99.90;;;;;;5060664;28;20229;-80
2023/11/28 09:00:19;;;;;;;0.68;0.68;;;7.60;99.90;;;;;;5060747;28;20554;-82
2023/11/28 09:02:48;;;;;;;1.02;0.93;;;7.70;99.90;;;;;;5061069;28;20217;-81
2023/11/28 09:05:15;;;;;;;0.50;0.50;;;7.70;99.90;;;;;;5060658;28;20662;-82
2023/11/28 09:07:42;;;;;;;0.50;0.40;;;7.40;99.90;;;;;;5060923;28;20222;-81
2023/11/28 09:10:11;;;;;;;0.50;0.40;;;7.20;99.90;;;;;;5061162;28;20199;-80
2023/11/28 09:12:38;;;;;;;0.50;0.40;;;7.10;99.90;;;;;;5061323;28;20187;-82
2023/11/28 09:15:06;;;;;;;0.50;0.50;;;7.10;99.90;;;;;;5061153;28;20199;-78
2023/11/28 09:17:33;;;;;;;0.50;0.50;;;6.90;99.90;;;;;;5060419;28;20282;-82
2023/11/28 09:20:01;;;;;;;0.50;0.40;;;6.80;99.90;;;;;;5060289;28;20254;-82
2023/11/28 09:22:28;;;;;;;0.50;0.40;;;6.40;99.90;;;;;;5060176;28;20244;-80
2023/11/28 09:24:55;;;;;;;0.50;0.40;;;6.00;99.90;;;;;;5060913;28;20257;-80
2023/11/28 09:27:22;;;;;;;0.50;0.40;;;5.50;99.90;;;;;;5060398;28;20215;-82
2023/11/28 09:29:48;;;;;;;0.50;0.45;;;5.00;99.90;;;;;;5060641;28;20765;-80
2023/11/28 09:32:15;;;;;;;0.50;0.50;;;4.60;99.90;;;;;;5059725;28;20191;-82
2023/11/28 09:34:43;;;;;;;0.50;0.40;;;4.10;99.90;;;;;;5059294;28;20535;-81
2023/11/28 09:37:12;;;;;;;0.50;0.40;;;3.90;99.90;;;;;;5059002;28;20195;-81
2023/11/28 09:39:39;;;;;;;0.50;0.40;;;3.70;99.90;;;;;;5059663;28;20309;-82
2023/11/28 09:42:11;;;;;;;1.35;0.95;;;3.50;99.90;;;;;;5059166;28;20222;-81
2023/11/28 09:44:37;;;;;;;0.50;0.40;;;3.40;99.90;;;;;;5059889;28;20274;-81
2023/11/28 09:47:08;;;;;;;0.50;0.40;;;3.10;99.90;;;;;;5059887;28;20198;-80
2023/11/28 09:49:40;;;;;;;0.50;0.50;;;3.00;99.90;;;;;;5058901;28;20242;-82
2023/11/28 09:52:08;;;;;;;0.50;0.40;;;2.90;99.90;;;;;;5058365;28;20199;-81
2023/11/28 09:54:38;;;;;;;0.50;0.45;;;2.90;99.90;;;;;;5057791;28;20361;-81
2023/11/28 09:57:06;;;;;;;1.13;1.02;;;2.80;99.90;;;;;;5057767;28;20543;-82
2023/11/28 09:59:37;;;;;;;0.85;0.73;;;2.80;99.90;;;;;;5059259;28;20282;-82
2023/11/28 10:02:05;;;;;;;0.50;0.40;;;2.70;99.90;;;;;;5058865;28;20285;-81
2023/11/28 10:04:32;;;;;;;0.50;0.47;;;2.70;99.90;;;;;;5057874;28;20218;-80
2023/11/28 10:07:02;;;;;;;0.50;0.40;;;2.60;99.90;;;;;;5058101;28;20278;-82
2023/11/28 10:09:32;;;;;;;0.50;0.40;;;2.60;99.90;;;;;;5057145;28;20231;-81
2023/11/28 10:12:02;;;;;;;0.50;0.40;;;2.50;99.90;;;;;;5057650;28;20566;-81
2023/11/28 10:14:29;;;;;;;0.50;0.40;;;2.50;99.90;;;;;;5057262;28;20278;-81
2023/11/28 10:16:57;;;;;;;0.70;0.70;;;2.50;99.90;;;;;;5057077;28;20199;-80
2023/11/28 10:19:24;;;;;;;0.50;0.50;;;2.50;99.90;;;;;;5056762;28;20561;-82
2023/11/28 10:21:51;;;;;;;0.50;0.40;;;2.40;99.90;;;;;;5057174;28;20199;-82
2023/11/28 10:24:20;;;;;;;0.50;0.40;;;2.30;99.90;;;;;;5057553;28;20238;-82
2023/11/28 10:26:47;;;;;;;0.55;0.55;;;2.30;99.90;;;;;;5057576;28;20217;-82
2023/11/28 10:29:18;;;;;;;0.50;0.50;;;2.30;99.90;;;;;;5057110;28;20673;-82
2023/11/28 10:31:44;;;;;;;0.50;0.50;;;2.20;99.90;;;;;;5050010;28;20334;-80
2023/11/28 10:34:11;;;;;;;0.50;0.40;;;2.20;99.90;;;;;;5057674;28;20203;-82
2023/11/28 10:36:42;;;;;;;0.50;0.40;;;2.20;99.90;;;;;;5057067;28;20192;-82
2023/11/28 10:39:10;;;;;;;1.25;1.15;;;2.20;99.90;;;;;;5056974;28;20297;-81
2023/11/28 10:41:38;;;;;;;0.63;0.63;;;2.20;99.90;;;;;;5056798;28;20241;-81
2023/11/28 10:44:06;;;;;;;0.50;0.50;;;2.20;99.90;;;;;;5056080;28;20203;-77
2023/11/28 10:46:36;;;;;;;0.50;0.40;;;2.10;99.90;;;;;;5055957;28;20187;-81
2023/11/28 10:49:05;;;;;;;0.50;0.40;;;2.10;99.90;;;;;;5055761;28;20215;-82
2023/11/28 10:51:32;;;;;;;0.50;0.40;;;2.20;99.90;;;;;;5055888;28;20563;-84
2023/11/28 10:54:05;;;;;;;0.60;0.60;;;2.20;99.90;;;;;;5055329;28;20192;-84
2023/11/28 10:56:44;;;;;;;0.50;0.40;;;2.20;99.90;;;;;;5055192;28;20186;-83
2023/11/28 10:59:17;;;;;;;9.45;0.90;;;2.30;99.90;;;;;;5055587;28;20211;-84
2023/11/28 11:01:46;;;;;;;0.50;0.50;;;2.30;99.90;;;;;;5055636;28;20195;-82
2023/11/28 11:04:13;;;;;;;0.50;0.40;;;2.40;99.90;;;;;;5055498;28;20219;-83
2023/11/28 11:06:40;;;;;;;0.50;0.40;;;2.30;99.90;;;;;;5055147;28;20199;-83
2023/11/28 11:09:09;;;;;;;0.50;0.50;;;2.30;99.90;;;;;;5055090;28;20226;-83
2023/11/28 11:11:37;;;;;;;0.50;0.50;;;2.20;99.90;;;;;;5055287;28;20195;-80
2023/11/28 11:14:13;;;;;;;0.50;0.40;;;2.30;99.90;;;;;;5054601;28;20191;-83
2023/11/28 11:16:51;;;;;;;0.50;0.50;;;2.70;99.90;;;;;;5054953;28;20201;-83
2023/11/28 11:19:19;;;;;;;0.50;0.50;;;3.10;99.90;;;;;;5054544;28;20686;-84
2023/11/28 11:21:53;;;;;;;0.50;0.40;;;3.20;99.90;;;;;;5054423;28;20195;-84
2023/11/28 11:24:20;;;;;;;0.50;0.50;;;3.30;99.90;;;;;;5054267;28;20309;-83
2023/11/28 11:26:49;;;;;;;0.50;0.40;;;3.30;99.90;;;;;;5054567;28;20194;-82
2023/11/28 11:29:34;;;;;;;1.60;1.50;;;3.30;99.90;;;;;;5054395;28;20694;-85
2023/11/28 11:32:02;;;;;;;0.50;0.40;;;3.30;99.90;;;;;;5054196;28;20199;-84
2023/11/28 11:34:35;;;;;;;0.50;0.40;;;3.30;99.90;;;;;;5053779;28;20211;-83
2023/11/28 11:37:09;;;;;;;0.50;0.40;;;3.30;99.90;;;;;;5053738;28;20194;-83
2023/11/28 11:39:36;;;;;;;0.50;0.40;;;3.30;99.90;;;;;;5053843;28;20199;-82
2023/11/28 11:42:03;;;;;;;0.50;0.40;;;3.30;99.90;;;;;;5053646;28;20238;-80
2023/11/28 11:44:30;;;;;;;0.50;0.50;;;3.40;99.90;;;;;;5053408;28;20242;-84
2023/11/28 11:47:13;;;;;;;0.50;0.40;;;3.40;99.90;;;;;;5053568;28;20226;-83
2023/11/28 11:49:42;;;;;;;0.70;0.70;;;3.30;99.90;;;;;;5053151;28;20341;-81
2023/11/28 11:52:09;;;;;;;0.80;0.80;;;3.30;99.90;;;;;;5053611;28;20198;-83
2023/11/28 11:54:36;;;;;;;0.50;0.40;;;3.20;99.90;;;;;;5053551;28;20658;-82
2023/11/28 11:57:03;;;;;;;0.50;0.50;;;3.30;99.90;;;;;;5053567;28;20569;-82
2023/11/28 11:59:30;;;;;;;0.50;0.45;;;3.40;99.90;;;;;;5053206;28;20259;-82
2023/11/28 12:01:58;;;;;;;0.50;0.45;;;4.10;99.90;;;;;;5053530;28;20187;-84
2023/11/28 12:04:26;;;;;;;0.50;0.40;;;4.70;99.90;;;;;;5052717;28;20203;-82
2023/11/28 12:07:07;;;;;;;0.50;0.40;;;4.90;99.90;;;;;;5055349;28;20195;-82
2023/11/28 12:09:35;;;;;;;0.50;0.40;;;5.10;99.90;;;;;;5056914;28;20207;-82
2023/11/28 12:12:02;;;;;;;0.50;0.40;;;5.30;99.90;;;;;;5056819;28;20195;-81
2023/11/28 12:14:29;;;;;;;0.50;0.40;;;5.30;99.90;;;;;;5056462;28;20183;-83
2023/11/28 12:16:56;;;;;;;1.23;1.13;;;5.20;99.90;;;;;;5060452;28;20195;-80
2023/11/28 12:19:23;;;;;;;0.50;0.40;;;5.00;99.90;;;;;;5059097;28;20195;-81
2023/11/28 12:21:51;;;;;;;0.77;0.77;;;4.70;99.90;;;;;;5052059;28;20198;-83
2023/11/28 12:24:17;;;;;;;0.50;0.40;;;4.50;99.90;;;;;;5059251;28;20223;-78
2023/11/28 12:26:44;;;;;;;0.50;0.40;;;4.30;99.90;;;;;;5058465;28;20201;-83
2023/11/28 12:29:13;;;;;;;0.50;0.40;;;4.00;99.90;;;;;;5059400;28;20230;-81
2023/11/28 12:31:39;;;;;;;0.50;0.40;;;3.80;99.90;;;;;;5057778;28;20226;-83
2023/11/28 12:34:07;;;;;;;0.50;0.40;;;3.70;99.90;;;;;;5056562;28;20192;-82
2023/11/28 12:36:34;;;;;;;0.50;0.40;;;3.60;99.90;;;;;;5056941;28;20198;-81
2023/11/28 12:39:05;;;;;;;0.50;0.40;;;3.50;99.90;;;;;;5056705;28;20215;-81
2023/11/28 12:41:34;;;;;;;0.50;0.40;;;3.40;99.90;;;;;;5056068;28;20258;-82
2023/11/28 12:44:04;;;;;;;0.50;0.40;;;3.40;99.90;;;;;;5056187;28;20913;-82
2023/11/28 12:46:31;;;;;;;0.50;0.40;;;3.40;99.90;;;;;;5056507;28;20615;-83
2023/11/28 12:48:58;;;;;;;0.50;0.45;;;3.40;99.90;;;;;;5056583;28;20260;-79
2023/11/28 12:51:25;;;;;;;1.23;1.13;;;3.30;99.90;;;;;;5056979;28;20568;-83
2023/11/28 12:53:52;;;;;;;0.50;0.47;;;3.30;99.90;;;;;;5059579;28;20195;-82
2023/11/28 12:56:20;;;;;;;0.50;0.40;;;3.30;99.90;;;;;;5056285;28;20187;-83
2023/11/28 12:58:46;;;;;;;0.50;0.40;;;3.30;99.90;;;;;;5056455;28;20219;-82